Genesis Eagle — WDG9347 — position and weather

sailwx.info

Track history (hours):
 
Tides and Currents Weather Stations Pressure Air Temp Water Temp Dewpoint Dewpoint Depression Visibility Wind Speed Wind Dir Waves Ship Positions

Genesis Eagle

Owner: Genesis Marine, LLC, Houston, TX. More information available from US FCC via Universal Licensing System and Coast Guard Vessel Documentation Center.

Last reported at 2018-Jan-18 06:49 UTC. Time now 2018-Jan-18 15:22 UTC.
Position N 39°03' W 075°10'.

Length 35 m; draft 6 m.

Type: Tug. MMSI: 338131000.

Date/timePositionNaut miles runAvg speedWind from/ knotsBaromVisibWave heightAir tempDewpointWater temp
2018-Jan-18 06:49N 39°03' W 075°10'310.2
2018-Jan-18 06:30N 39°06' W 075°12'5 9.8
2018-Jan-18 06:00N 39°10' W 075°16'5 9.3
2018-Jan-18 05:30N 39°14' W 075°18'5 8.8
2018-Jan-18 04:59N 39°18' W 075°22'4 7.9
2018-Jan-18 04:30N 39°20' W 075°26'3 6.9
2018-Jan-18 04:00N 39°23' W 075°29'4 7.2
2018-Jan-18 03:30N 39°26' W 075°32'3 6.7
2018-Jan-18 03:00N 39°29' W 075°34'4 7.1
2018-Jan-18 02:30N 39°32' W 075°33'3 5.6
2018-Jan-18 02:00N 39°35' W 075°34'1 2.2
2018-Jan-18 01:31N 39°35' W 075°36'0 0.0
2018-Jan-18 01:00N 39°35' W 075°36'0 0.0
2018-Jan-18 00:00N 39°35' W 075°36'0 0.1
2018-Jan-17 23:57N 39°35' W 075°36'  
2018-Jan-12 08:23N 42°20' W 070°59'0 0.0
2018-Jan-12 07:57N 42°20' W 070°59'0 0.1
2018-Jan-12 07:24N 42°20' W 070°59'0 0.2
2018-Jan-12 07:00N 42°20' W 070°59'0 0.1
2018-Jan-12 05:52N 42°20' W 070°58'0 0.0
2018-Jan-12 05:27N 42°20' W 070°58'0 0.0
2018-Jan-12 05:00N 42°20' W 070°58'0 0.0
2018-Jan-12 04:30N 42°20' W 070°58'0 0.0
2018-Jan-12 04:00N 42°20' W 070°58'0 0.0
2018-Jan-12 03:30N 42°20' W 070°58'0 0.0
2018-Jan-12 03:00N 42°20' W 070°58'0 0.1
2018-Jan-12 02:29N 42°20' W 070°58'0 0.0
2018-Jan-11 17:56N 42°21' W 070°58'0 0.0
2018-Jan-11 17:28N 42°20' W 070°58'0 0.0
2018-Jan-11 16:56N 42°20' W 070°58'0 0.0
2018-Jan-11 16:29N 42°20' W 070°58'0 0.0
2018-Jan-11 15:57N 42°20' W 070°58'0 0.0
2018-Jan-11 15:24N 42°20' W 070°58'0 0.0
2018-Jan-11 14:50N 42°20' W 070°58'0 0.0
2018-Jan-11 14:22N 42°20' W 070°58'0 0.0
2018-Jan-11 13:11N 42°20' W 070°58'0 0.0
2018-Jan-11 10:48N 42°21' W 070°59'0 0.0
2018-Jan-11 09:50N 42°21' W 070°59'0 0.0
2018-Jan-11 05:29N 42°21' W 070°58'0 0.1
2018-Jan-11 04:57N 42°20' W 070°58'0 0.0
2018-Jan-11 04:30N 42°21' W 070°58'0 0.0
2018-Jan-11 03:59N 42°20' W 070°58'0 0.0
2018-Jan-11 03:30N 42°20' W 070°58'0 0.0
2018-Jan-11 03:00N 42°20' W 070°58'0 0.1
2018-Jan-11 02:20N 42°21' W 070°58'0 0.0
2018-Jan-11 01:46N 42°20' W 070°58'0 0.0
2018-Jan-11 01:20N 42°21' W 070°58'0 0.0
2018-Jan-11 00:56N 42°21' W 070°58'0 0.0
2018-Jan-10 23:48N 42°21' W 070°58'0 0.0
2018-Jan-10 21:29N 42°21' W 070°59'0 0.0
2018-Jan-10 19:03N 42°20' W 070°59'0 0.0
2018-Jan-10 19:00N 42°20' W 070°59'0 0.1
2018-Jan-10 15:44N 42°20' W 070°58'0 0.0
2018-Jan-10 15:30N 42°20' W 070°58'0 0.0
2018-Jan-10 14:37N 42°20' W 070°58'0 0.0
2018-Jan-10 14:26N 42°20' W 070°58'0 0.0
2018-Jan-10 13:58N 42°20' W 070°58'0 0.0
2018-Jan-10 13:21N 42°20' W 070°58'0 0.0
2018-Jan-10 12:57N 42°20' W 070°58'0 0.0
2018-Jan-10 10:09N 42°20' W 070°58'0 0.0
2018-Jan-10 09:55N 42°20' W 070°58'0 0.0
2018-Jan-10 09:18N 42°20' W 070°58'0 0.1
2018-Jan-10 08:39N 42°20' W 070°59'0 0.1
2018-Jan-10 08:30N 42°20' W 070°59'0 0.1
2018-Jan-10 08:01N 42°20' W 070°59'0 0.1
2018-Jan-10 07:30N 42°20' W 070°59'0 0.1
2018-Jan-10 07:00N 42°20' W 070°59'0 0.0
2018-Jan-10 06:30N 42°20' W 070°59'0 0.1
2018-Jan-10 06:00N 42°20' W 070°58'0 0.1
2018-Jan-10 05:30N 42°20' W 070°58'0 0.0
2018-Jan-10 04:55N 42°20' W 070°58'0 0.0
2018-Jan-10 04:17N 42°20' W 070°58'0 0.0
2018-Jan-10 03:55N 42°20' W 070°58'0 0.0
2018-Jan-10 03:21N 42°20' W 070°58'0 0.0
2018-Jan-10 03:00N 42°20' W 070°58'0 0.0
2018-Jan-10 02:29N 42°20' W 070°58'0 0.0
2018-Jan-10 02:00N 42°20' W 070°58'0 0.0
2018-Jan-10 01:30N 42°20' W 070°58'0 0.0
2018-Jan-10 00:45N 42°20' W 070°58'0 0.0
2018-Jan-10 00:20N 42°20' W 070°58'0 0.0
2018-Jan-10 00:00N 42°20' W 070°58'0 0.0
2018-Jan-09 23:18N 42°20' W 070°58'0 0.0
2018-Jan-09 21:01N 42°20' W 070°58'0 0.3
2018-Jan-09 20:59N 42°20' W 070°58'0 0.2
2018-Jan-09 20:28N 42°20' W 070°59'0 0.1
2018-Jan-09 20:00N 42°20' W 070°59'0 0.0
2018-Jan-09 19:30N 42°20' W 070°59'0 0.2
2018-Jan-09 18:59N 42°20' W 070°59'0 0.2
2018-Jan-09 18:26N 42°20' W 070°58'0 0.1
2018-Jan-09 18:00N 42°20' W 070°58'0 0.0
2018-Jan-09 17:26N 42°20' W 070°58'0 0.0
2018-Jan-09 16:42N 42°20' W 070°58'0 0.0
2018-Jan-09 16:08N 42°20' W 070°58'0 0.0
2018-Jan-09 15:54N 42°20' W 070°58'0 0.0
2018-Jan-09 15:14N 42°20' W 070°58'0 0.0
2018-Jan-09 14:53N 42°20' W 070°58'0 0.0
2018-Jan-09 14:28N 42°20' W 070°58'0 0.0
2018-Jan-09 14:00N 42°20' W 070°58'0 0.0
2018-Jan-09 13:29N 42°20' W 070°58'0 0.0
2018-Jan-09 12:55N 42°20' W 070°58'0 0.1
2018-Jan-09 12:28N 42°20' W 070°58'0 0.0
2018-Jan-09 11:59N 42°20' W 070°58'0 0.0
2018-Jan-09 11:29N 42°20' W 070°58'0 0.0
2018-Jan-09 10:57N 42°20' W 070°58'0 0.0
2018-Jan-09 10:27N 42°20' W 070°58'0 0.0
2018-Jan-09 09:51N 42°20' W 070°58'0 0.0
2018-Jan-09 09:26N 42°20' W 070°58'0 0.1
2018-Jan-09 08:50N 42°20' W 070°58'0 0.0
2018-Jan-09 03:40N 42°21' W 070°58'0 0.1
2018-Jan-09 03:25N 42°20' W 070°58'0 0.0
2018-Jan-09 03:00N 42°20' W 070°58'0 0.0
2018-Jan-09 02:30N 42°20' W 070°58'0 0.0
2018-Jan-09 02:00N 42°20' W 070°58'0 0.0
2018-Jan-09 01:30N 42°20' W 070°58'0 0.0
2018-Jan-09 00:59N 42°20' W 070°58'0 0.0
2018-Jan-09 00:29N 42°20' W 070°58'0 0.0
2018-Jan-09 00:00N 42°20' W 070°58'0 0.0
2018-Jan-08 23:30N 42°20' W 070°58'0 0.0
2018-Jan-08 22:45N 42°20' W 070°58'0 0.0
2018-Jan-08 22:27N 42°20' W 070°58'3 3.6
2018-Jan-08 21:31N 42°22' W 070°55'4 8.4
2018-Jan-08 21:04N 42°23' W 070°50'1 9.0
2018-Jan-08 20:57N 42°23' W 070°48'4 9.0
2018-Jan-08 20:30N 42°20' W 070°44'5 9.2
2018-Jan-08 19:55N 42°17' W 070°39'4 9.1
2018-Jan-08 19:30N 42°14' W 070°35'  
Track history (hours):
 
Tides and Currents Weather Stations Pressure Air Temp Water Temp Dewpoint Dewpoint Depression Visibility Wind Speed Wind Dir Waves Ship Positions

Genesis Eagle

Owner: Genesis Marine, LLC, Houston, TX. More information available from US FCC via Universal Licensing System and Coast Guard Vessel Documentation Center.

Last reported at 2018-Jan-18 06:49 UTC. Time now 2018-Jan-18 15:22 UTC.
Position N 39°03' W 075°10'.

Length 35 m; draft 6 m.

Type: Tug. MMSI: 338131000.

Date/timePositionNaut miles runAvg speedWind from/ knotsBaromVisibWave heightAir tempDewpointWater temp
2018-Jan-18 06:49N 39°03' W 075°10'310.2
2018-Jan-18 06:30N 39°06' W 075°12'5 9.8
2018-Jan-18 06:00N 39°10' W 075°16'5 9.3
2018-Jan-18 05:30N 39°14' W 075°18'5 8.8
2018-Jan-18 04:59N 39°18' W 075°22'4 7.9
2018-Jan-18 04:30N 39°20' W 075°26'3 6.9
2018-Jan-18 04:00N 39°23' W 075°29'4 7.2
2018-Jan-18 03:30N 39°26' W 075°32'3 6.7
2018-Jan-18 03:00N 39°29' W 075°34'4 7.1
2018-Jan-18 02:30N 39°32' W 075°33'3 5.6
2018-Jan-18 02:00N 39°35' W 075°34'1 2.2
2018-Jan-18 01:31N 39°35' W 075°36'0 0.0
2018-Jan-18 01:00N 39°35' W 075°36'0 0.0
2018-Jan-18 00:00N 39°35' W 075°36'0 0.1
2018-Jan-17 23:57N 39°35' W 075°36'  
2018-Jan-12 08:23N 42°20' W 070°59'0 0.0
2018-Jan-12 07:57N 42°20' W 070°59'0 0.1
2018-Jan-12 07:24N 42°20' W 070°59'0 0.2
2018-Jan-12 07:00N 42°20' W 070°59'0 0.1
2018-Jan-12 05:52N 42°20' W 070°58'0 0.0
2018-Jan-12 05:27N 42°20' W 070°58'0 0.0
2018-Jan-12 05:00N 42°20' W 070°58'0 0.0
2018-Jan-12 04:30N 42°20' W 070°58'0 0.0
2018-Jan-12 04:00N 42°20' W 070°58'0 0.0
2018-Jan-12 03:30N 42°20' W 070°58'0 0.0
2018-Jan-12 03:00N 42°20' W 070°58'0 0.1
2018-Jan-12 02:29N 42°20' W 070°58'0 0.0
2018-Jan-11 17:56N 42°21' W 070°58'0 0.0
2018-Jan-11 17:28N 42°20' W 070°58'0 0.0
2018-Jan-11 16:56N 42°20' W 070°58'0 0.0
2018-Jan-11 16:29N 42°20' W 070°58'0 0.0
2018-Jan-11 15:57N 42°20' W 070°58'0 0.0
2018-Jan-11 15:24N 42°20' W 070°58'0 0.0
2018-Jan-11 14:50N 42°20' W 070°58'0 0.0
2018-Jan-11 14:22N 42°20' W 070°58'0 0.0
2018-Jan-11 13:11N 42°20' W 070°58'0 0.0
2018-Jan-11 10:48N 42°21' W 070°59'0 0.0
2018-Jan-11 09:50N 42°21' W 070°59'0 0.0
2018-Jan-11 05:29N 42°21' W 070°58'0 0.1
2018-Jan-11 04:57N 42°20' W 070°58'0 0.0
2018-Jan-11 04:30N 42°21' W 070°58'0 0.0
2018-Jan-11 03:59N 42°20' W 070°58'0 0.0
2018-Jan-11 03:30N 42°20' W 070°58'0 0.0
2018-Jan-11 03:00N 42°20' W 070°58'0 0.1
2018-Jan-11 02:20N 42°21' W 070°58'0 0.0
2018-Jan-11 01:46N 42°20' W 070°58'0 0.0
2018-Jan-11 01:20N 42°21' W 070°58'0 0.0
2018-Jan-11 00:56N 42°21' W 070°58'0 0.0
2018-Jan-10 23:48N 42°21' W 070°58'0 0.0
2018-Jan-10 21:29N 42°21' W 070°59'0 0.0
2018-Jan-10 19:03N 42°20' W 070°59'0 0.0
2018-Jan-10 19:00N 42°20' W 070°59'0 0.1
2018-Jan-10 15:44N 42°20' W 070°58'0 0.0
2018-Jan-10 15:30N 42°20' W 070°58'0 0.0
2018-Jan-10 14:37N 42°20' W 070°58'0 0.0
2018-Jan-10 14:26N 42°20' W 070°58'0 0.0
2018-Jan-10 13:58N 42°20' W 070°58'0 0.0
2018-Jan-10 13:21N 42°20' W 070°58'0 0.0
2018-Jan-10 12:57N 42°20' W 070°58'0 0.0
2018-Jan-10 10:09N 42°20' W 070°58'0 0.0
2018-Jan-10 09:55N 42°20' W 070°58'0 0.0
2018-Jan-10 09:18N 42°20' W 070°58'0 0.1
2018-Jan-10 08:39N 42°20' W 070°59'0 0.1
2018-Jan-10 08:30N 42°20' W 070°59'0 0.1
2018-Jan-10 08:01N 42°20' W 070°59'0 0.1
2018-Jan-10 07:30N 42°20' W 070°59'0 0.1
2018-Jan-10 07:00N 42°20' W 070°59'0 0.0
2018-Jan-10 06:30N 42°20' W 070°59'0 0.1
2018-Jan-10 06:00N 42°20' W 070°58'0 0.1
2018-Jan-10 05:30N 42°20' W 070°58'0 0.0
2018-Jan-10 04:55N 42°20' W 070°58'0 0.0
2018-Jan-10 04:17N 42°20' W 070°58'0 0.0
2018-Jan-10 03:55N 42°20' W 070°58'0 0.0
2018-Jan-10 03:21N 42°20' W 070°58'0 0.0
2018-Jan-10 03:00N 42°20' W 070°58'0 0.0
2018-Jan-10 02:29N 42°20' W 070°58'0 0.0
2018-Jan-10 02:00N 42°20' W 070°58'0 0.0
2018-Jan-10 01:30N 42°20' W 070°58'0 0.0
2018-Jan-10 00:45N 42°20' W 070°58'0 0.0
2018-Jan-10 00:20N 42°20' W 070°58'0 0.0
2018-Jan-10 00:00N 42°20' W 070°58'0 0.0
2018-Jan-09 23:18N 42°20' W 070°58'0 0.0
2018-Jan-09 21:01N 42°20' W 070°58'0 0.3
2018-Jan-09 20:59N 42°20' W 070°58'0 0.2
2018-Jan-09 20:28N 42°20' W 070°59'0 0.1
2018-Jan-09 20:00N 42°20' W 070°59'0 0.0
2018-Jan-09 19:30N 42°20' W 070°59'0 0.2
2018-Jan-09 18:59N 42°20' W 070°59'0 0.2
2018-Jan-09 18:26N 42°20' W 070°58'0 0.1
2018-Jan-09 18:00N 42°20' W 070°58'0 0.0
2018-Jan-09 17:26N 42°20' W 070°58'0 0.0
2018-Jan-09 16:42N 42°20' W 070°58'0 0.0
2018-Jan-09 16:08N 42°20' W 070°58'0 0.0
2018-Jan-09 15:54N 42°20' W 070°58'0 0.0
2018-Jan-09 15:14N 42°20' W 070°58'0 0.0
2018-Jan-09 14:53N 42°20' W 070°58'0 0.0
2018-Jan-09 14:28N 42°20' W 070°58'0 0.0
2018-Jan-09 14:00N 42°20' W 070°58'0 0.0
2018-Jan-09 13:29N 42°20' W 070°58'0 0.0
2018-Jan-09 12:55N 42°20' W 070°58'0 0.1
2018-Jan-09 12:28N 42°20' W 070°58'0 0.0
2018-Jan-09 11:59N 42°20' W 070°58'0 0.0
2018-Jan-09 11:29N 42°20' W 070°58'0 0.0
2018-Jan-09 10:57N 42°20' W 070°58'0 0.0
2018-Jan-09 10:27N 42°20' W 070°58'0 0.0
2018-Jan-09 09:51N 42°20' W 070°58'0 0.0
2018-Jan-09 09:26N 42°20' W 070°58'0 0.1
2018-Jan-09 08:50N 42°20' W 070°58'0 0.0
2018-Jan-09 03:40N 42°21' W 070°58'0 0.1
2018-Jan-09 03:25N 42°20' W 070°58'0 0.0
2018-Jan-09 03:00N 42°20' W 070°58'0 0.0
2018-Jan-09 02:30N 42°20' W 070°58'0 0.0
2018-Jan-09 02:00N 42°20' W 070°58'0 0.0
2018-Jan-09 01:30N 42°20' W 070°58'0 0.0
2018-Jan-09 00:59N 42°20' W 070°58'0 0.0
2018-Jan-09 00:29N 42°20' W 070°58'0 0.0
2018-Jan-09 00:00N 42°20' W 070°58'0 0.0
2018-Jan-08 23:30N 42°20' W 070°58'0 0.0
2018-Jan-08 22:45N 42°20' W 070°58'0 0.0
2018-Jan-08 22:27N 42°20' W 070°58'3 3.6
2018-Jan-08 21:31N 42°22' W 070°55'4 8.4
2018-Jan-08 21:04N 42°23' W 070°50'1 9.0
2018-Jan-08 20:57N 42°23' W 070°48'4 9.0
2018-Jan-08 20:30N 42°20' W 070°44'5 9.2
2018-Jan-08 19:55N 42°17' W 070°39'4 9.1
2018-Jan-08 19:30N 42°14' W 070°35'  

Dump ship's entire track history